Time;durP1;ratioP1;P1;durP2;ratioP2;P2;SDS_P1;SDS_P2;PMS_P1;PMS_P2;Temp;Humidity;BMP_temperature;BMP_pressure;BME280_temperature;BME280_humidity;BME280_pressure;Samples;Min_cycle;Max_cycle;Signal;HPM_P1;HPM_P2
2023/06/19 00:00:44;;;;;;;7.47;6.77;;;30.50;41.40;;;;;;5063512;28;20481;-78
2023/06/19 00:03:12;;;;;;;9.10;6.77;;;30.50;41.40;;;;;;5071940;28;20544;-77
2023/06/19 00:05:41;;;;;;;10.93;6.67;;;30.50;41.10;;;;;;5071649;28;20426;-77
2023/06/19 00:08:09;;;;;;;7.13;6.40;;;30.50;41.10;;;;;;5079013;28;20452;-78
2023/06/19 00:10:37;;;;;;;7.90;6.20;;;30.50;41.00;;;;;;5067910;28;20449;-78
2023/06/19 00:13:05;;;;;;;7.20;6.57;;;30.50;40.80;;;;;;5071167;28;20509;-77
2023/06/19 00:15:33;;;;;;;6.80;6.20;;;30.50;40.90;;;;;;5064485;28;20433;-78
2023/06/19 00:18:02;;;;;;;7.17;6.20;;;30.50;41.40;;;;;;5063103;28;20476;-78
2023/06/19 00:20:30;;;;;;;7.37;6.67;;;30.40;40.60;;;;;;5071324;28;20449;-78
2023/06/19 00:22:59;;;;;;;7.37;6.77;;;30.50;40.90;;;;;;5072442;28;20463;-78
2023/06/19 00:25:28;;;;;;;8.23;6.33;;;30.50;40.70;;;;;;5067490;28;20396;-78
2023/06/19 00:27:56;;;;;;;15.97;14.27;;;30.50;40.40;;;;;;5065450;28;20479;-78
2023/06/19 00:30:24;;;;;;;17.57;15.60;;;30.40;40.40;;;;;;5066189;28;20477;-76
2023/06/19 00:32:52;;;;;;;9.57;8.67;;;30.40;40.40;;;;;;5070730;28;20475;-78
2023/06/19 00:35:22;;;;;;;8.63;7.87;;;30.40;40.40;;;;;;5066192;28;20417;-78
2023/06/19 00:37:50;;;;;;;9.07;8.20;;;30.40;40.20;;;;;;5064872;28;20469;-79
2023/06/19 00:40:26;;;;;;;9.00;8.07;;;30.40;40.00;;;;;;5070883;28;20437;-78
2023/06/19 00:42:54;;;;;;;8.10;7.40;;;30.40;40.20;;;;;;5066839;28;20467;-78
2023/06/19 00:45:23;;;;;;;11.73;7.53;;;30.40;40.00;;;;;;5065301;28;20409;-78
2023/06/19 00:47:52;;;;;;;8.60;7.90;;;30.50;40.30;;;;;;5071075;28;20525;-78
2023/06/19 00:50:20;;;;;;;7.80;7.10;;;30.50;39.90;;;;;;5078491;28;20438;-78
2023/06/19 00:52:49;;;;;;;7.33;6.73;;;30.50;40.10;;;;;;5071049;28;20445;-78
2023/06/19 00:55:17;;;;;;;7.67;6.97;;;30.50;39.40;;;;;;5070028;28;20448;-78
2023/06/19 00:57:46;;;;;;;9.10;8.30;;;30.40;39.60;;;;;;5068218;28;20477;-78
2023/06/19 01:00:14;;;;;;;13.53;12.13;;;30.30;40.00;;;;;;5063606;28;20474;-78
2023/06/19 01:02:42;;;;;;;10.43;8.77;;;30.40;39.60;;;;;;5070750;28;20404;-78
2023/06/19 01:05:10;;;;;;;7.50;6.90;;;30.30;39.60;;;;;;5070848;28;20450;-77
2023/06/19 01:07:41;;;;;;;9.07;7.70;;;30.30;39.40;;;;;;5066078;28;20480;-78
2023/06/19 01:10:15;;;;;;;9.73;7.20;;;30.30;39.50;;;;;;5062970;28;20416;-78
2023/06/19 01:12:50;;;;;;;7.90;7.20;;;30.20;39.10;;;;;;5070564;28;20520;-78
2023/06/19 01:15:18;;;;;;;8.40;7.57;;;30.20;39.30;;;;;;5068575;28;20423;-78
2023/06/19 01:17:47;;;;;;;8.70;7.77;;;30.20;39.50;;;;;;5071656;28;20507;-78
2023/06/19 01:20:15;;;;;;;9.57;8.67;;;30.20;39.90;;;;;;5070629;28;20412;-77
2023/06/19 01:22:44;;;;;;;8.50;7.77;;;30.20;39.40;;;;;;5074675;28;20427;-77
2023/06/19 01:25:13;;;;;;;7.73;7.03;;;30.20;39.10;;;;;;5058628;28;20460;-77
2023/06/19 01:27:41;;;;;;;8.23;7.10;;;30.20;39.20;;;;;;5059930;28;20442;-77
2023/06/19 01:30:10;;;;;;;8.30;7.60;;;30.20;39.30;;;;;;5070701;28;20941;-77
2023/06/19 01:32:42;;;;;;;8.10;7.40;;;30.30;39.30;;;;;;5078018;28;20441;-77
2023/06/19 01:35:10;;;;;;;8.63;7.20;;;30.30;39.00;;;;;;5054905;28;20446;-77
2023/06/19 01:37:39;;;;;;;7.90;7.10;;;30.30;39.10;;;;;;5066079;28;20469;-77
2023/06/19 01:40:10;;;;;;;6.93;6.33;;;30.30;38.90;;;;;;5062621;28;20519;-77
2023/06/19 01:42:38;;;;;;;7.40;6.80;;;30.20;38.60;;;;;;5066378;28;20525;-77
2023/06/19 01:45:08;;;;;;;7.40;6.80;;;30.20;38.70;;;;;;5065904;28;20417;-77
2023/06/19 01:47:36;;;;;;;7.20;6.60;;;30.20;38.40;;;;;;5074201;28;20416;-77
2023/06/19 01:50:05;;;;;;;9.87;6.93;;;30.20;38.30;;;;;;5067104;28;20449;-77
2023/06/19 01:52:33;;;;;;;7.67;6.97;;;30.10;38.00;;;;;;5070028;28;20441;-78
2023/06/19 01:55:02;;;;;;;8.13;7.30;;;30.00;37.90;;;;;;5074027;28;20465;-78
2023/06/19 01:57:32;;;;;;;7.60;6.80;;;29.90;38.00;;;;;;5070482;28;20488;-78
2023/06/19 02:00:00;;;;;;;7.60;6.90;;;29.80;37.80;;;;;;5070518;28;20447;-78
2023/06/19 02:02:28;;;;;;;9.20;7.30;;;29.90;38.20;;;;;;5070940;28;20416;-77
2023/06/19 02:04:56;;;;;;;7.10;6.33;;;29.90;37.70;;;;;;5070733;28;20467;-78
2023/06/19 02:07:24;;;;;;;7.77;7.07;;;30.00;37.90;;;;;;5078174;28;20498;-78
2023/06/19 02:09:52;;;;;;;7.30;6.60;;;30.00;37.50;;;;;;5068804;28;20456;-78
2023/06/19 02:12:20;;;;;;;7.73;7.00;;;29.90;37.60;;;;;;5073705;28;20540;-78
2023/06/19 02:14:50;;;;;;;9.13;6.47;;;29.80;37.40;;;;;;5073496;28;20540;-78
2023/06/19 02:17:18;;;;;;;8.07;7.27;;;29.70;37.60;;;;;;5076408;28;20465;-78
2023/06/19 02:19:46;;;;;;;7.90;7.20;;;29.70;37.80;;;;;;5070751;28;20419;-78
2023/06/19 02:22:14;;;;;;;7.53;6.87;;;29.80;37.80;;;;;;5073740;28;20421;-78
2023/06/19 02:24:44;;;;;;;7.87;7.20;;;29.70;37.50;;;;;;5070136;28;20523;-78
2023/06/19 02:27:12;;;;;;;8.00;7.27;;;29.80;37.70;;;;;;5065890;28;20527;-78
2023/06/19 02:29:40;;;;;;;7.60;7.00;;;29.80;37.50;;;;;;5072972;28;20440;-76
2023/06/19 02:32:11;;;;;;;7.30;6.60;;;29.80;37.50;;;;;;5064263;28;20497;-77
2023/06/19 02:34:39;;;;;;;13.87;12.43;;;29.80;37.70;;;;;;5069222;28;20576;-77
2023/06/19 02:37:08;;;;;;;14.20;12.17;;;29.70;37.40;;;;;;5069196;28;20420;-77
2023/06/19 02:39:36;;;;;;;10.50;9.60;;;29.80;37.40;;;;;;5073278;28;20425;-77
2023/06/19 02:42:06;;;;;;;9.47;8.67;;;29.70;37.70;;;;;;5069429;28;20459;-77
2023/06/19 02:44:34;;;;;;;9.73;8.53;;;29.60;37.60;;;;;;5078741;28;20484;-77
2023/06/19 02:47:02;;;;;;;9.57;8.00;;;29.50;37.40;;;;;;5065491;28;20533;-76
2023/06/19 02:49:31;;;;;;;10.70;8.00;;;29.50;37.50;;;;;;5076888;28;20451;-76
2023/06/19 02:52:00;;;;;;;8.57;7.77;;;29.50;37.70;;;;;;5064531;28;20509;-77
2023/06/19 02:54:28;;;;;;;9.30;7.93;;;29.50;37.70;;;;;;5072429;28;20549;-77
2023/06/19 02:56:56;;;;;;;9.30;8.50;;;29.40;37.60;;;;;;5080501;28;20516;-77
2023/06/19 02:59:24;;;;;;;30.70;24.20;;;29.50;37.90;;;;;;5075686;28;20438;-77
2023/06/19 03:01:52;;;;;;;25.57;16.23;;;29.50;37.50;;;;;;5072436;28;20473;-77
2023/06/19 03:04:20;;;;;;;22.97;18.20;;;29.50;37.70;;;;;;5063675;28;20476;-77
2023/06/19 03:06:50;;;;;;;37.00;29.20;;;29.40;37.40;;;;;;5069232;28;20491;-77
2023/06/19 03:09:18;;;;;;;27.03;20.57;;;29.40;37.60;;;;;;5073166;28;20540;-77
2023/06/19 03:11:46;;;;;;;16.47;13.80;;;29.30;37.50;;;;;;5072510;28;20437;-78
2023/06/19 03:14:14;;;;;;;11.97;10.50;;;29.10;37.60;;;;;;5069757;28;20474;-77
2023/06/19 03:16:42;;;;;;;13.97;9.90;;;28.80;37.90;;;;;;5079022;28;20503;-77
2023/06/19 03:19:10;;;;;;;14.93;10.50;;;28.50;38.70;;;;;;5076648;28;20416;-77
2023/06/19 03:21:38;;;;;;;10.10;9.10;;;28.40;38.70;;;;;;5072422;28;20478;-76
2023/06/19 03:24:08;;;;;;;21.30;16.40;;;28.20;39.00;;;;;;5080352;28;20474;-77
2023/06/19 03:26:36;;;;;;;12.97;11.57;;;28.70;38.90;;;;;;5080449;28;20453;-77
2023/06/19 03:29:04;;;;;;;12.37;9.80;;;28.70;38.50;;;;;;5072029;28;20932;-78
2023/06/19 03:31:32;;;;;;;10.17;9.03;;;28.30;38.50;;;;;;5064993;28;20433;-77
2023/06/19 03:34:00;;;;;;;13.87;12.20;;;28.10;39.60;;;;;;5070227;28;20975;-78
2023/06/19 03:36:28;;;;;;;13.40;11.00;;;28.30;39.20;;;;;;5078363;28;20443;-77
2023/06/19 03:38:56;;;;;;;11.40;8.97;;;28.40;39.00;;;;;;5058664;28;20502;-77
2023/06/19 03:41:25;;;;;;;11.87;8.50;;;28.20;39.20;;;;;;5077166;28;20450;-78
2023/06/19 03:43:54;;;;;;;9.57;8.67;;;28.20;38.90;;;;;;5066435;28;20623;-77
2023/06/19 03:46:22;;;;;;;9.27;8.33;;;28.00;39.60;;;;;;5070370;28;20444;-77
2023/06/19 03:48:50;;;;;;;13.70;9.00;;;28.20;39.40;;;;;;5073402;28;20536;-77
2023/06/19 03:51:18;;;;;;;15.90;13.30;;;28.30;39.50;;;;;;5064265;28;20417;-78
2023/06/19 03:53:46;;;;;;;17.00;15.20;;;28.60;39.10;;;;;;5079236;28;20462;-77
2023/06/19 03:56:14;;;;;;;11.93;9.50;;;28.70;39.00;;;;;;5063454;28;20455;-77
2023/06/19 03:58:44;;;;;;;8.67;7.80;;;28.50;38.70;;;;;;5071776;28;20455;-78
2023/06/19 04:01:12;;;;;;;11.50;7.93;;;28.10;39.50;;;;;;5071213;28;20420;-78
2023/06/19 04:03:40;;;;;;;8.70;7.90;;;27.70;40.50;;;;;;5073350;28;20436;-77
2023/06/19 04:06:09;;;;;;;8.10;7.40;;;27.70;40.40;;;;;;5060597;28;20417;-77
2023/06/19 04:08:37;;;;;;;7.70;7.03;;;27.60;40.80;;;;;;5066486;28;20421;-77
2023/06/19 04:11:05;;;;;;;8.63;7.77;;;27.50;40.90;;;;;;5071596;28;20451;-78
2023/06/19 04:13:32;;;;;;;7.90;7.10;;;27.10;41.30;;;;;;5063926;28;20997;-77
2023/06/19 04:16:02;;;;;;;9.93;6.83;;;27.10;41.40;;;;;;5071237;28;20546;-77
2023/06/19 04:18:30;;;;;;;9.40;8.50;;;26.90;41.70;;;;;;5071381;28;20438;-78
2023/06/19 04:20:59;;;;;;;8.70;7.90;;;27.20;41.90;;;;;;5069417;28;20505;-77
2023/06/19 04:23:26;;;;;;;8.07;7.20;;;27.00;42.00;;;;;;5072756;28;20490;-77
2023/06/19 04:25:54;;;;;;;7.43;6.70;;;27.20;41.70;;;;;;5070981;28;20437;-77
2023/06/19 04:28:22;;;;;;;11.00;8.00;;;27.20;41.80;;;;;;5070683;28;20460;-77
2023/06/19 04:30:50;;;;;;;11.70;7.53;;;27.50;41.20;;;;;;5070552;28;20507;-77
2023/06/19 04:33:21;;;;;;;8.00;7.30;;;27.50;41.50;;;;;;5067293;28;20492;-77
2023/06/19 04:35:49;;;;;;;8.23;7.50;;;27.40;41.30;;;;;;5066411;28;20476;-77
2023/06/19 04:38:17;;;;;;;8.33;6.80;;;27.40;41.60;;;;;;5053434;28;20450;-76
2023/06/19 04:40:45;;;;;;;8.33;7.53;;;27.30;41.80;;;;;;5070099;28;20473;-77
2023/06/19 04:43:13;;;;;;;8.17;7.40;;;27.30;42.00;;;;;;5071042;28;20489;-77
2023/06/19 04:45:42;;;;;;;7.93;7.10;;;27.00;42.20;;;;;;5062509;28;20462;-77
2023/06/19 04:48:11;;;;;;;9.37;7.93;;;27.10;42.40;;;;;;5064144;28;20504;-77
2023/06/19 04:50:40;;;;;;;8.67;7.87;;;27.30;42.10;;;;;;5071068;28;20437;-77
2023/06/19 04:53:08;;;;;;;9.70;7.10;;;27.60;42.10;;;;;;5078070;28;20450;-77
2023/06/19 04:55:37;;;;;;;10.73;7.90;;;27.60;41.80;;;;;;5058531;28;20529;-77
2023/06/19 04:58:05;;;;;;;8.50;7.70;;;27.80;41.30;;;;;;5073268;28;20417;-77
2023/06/19 05:00:33;;;;;;;9.47;8.47;;;27.80;41.50;;;;;;5079465;28;20511;-77
2023/06/19 05:03:01;;;;;;;8.37;7.50;;;28.00;41.70;;;;;;5062435;28;20472;-78
2023/06/19 05:05:30;;;;;;;9.07;8.10;;;27.80;41.50;;;;;;5071495;28;20419;-77
2023/06/19 05:08:02;;;;;;;9.07;8.17;;;27.60;42.10;;;;;;5083532;28;20483;-77
2023/06/19 05:10:29;;;;;;;10.57;8.27;;;27.80;41.70;;;;;;5064133;28;20408;-77
2023/06/19 05:12:57;;;;;;;8.70;7.53;;;27.70;41.90;;;;;;5068500;28;20459;-77
2023/06/19 05:15:25;;;;;;;13.67;8.43;;;27.60;42.00;;;;;;5070971;28;20507;-78
2023/06/19 05:17:53;;;;;;;8.50;7.70;;;27.90;42.00;;;;;;5071440;28;20483;-77
2023/06/19 05:20:21;;;;;;;14.50;8.50;;;27.80;42.00;;;;;;5071034;28;20408;-78
2023/06/19 05:22:50;;;;;;;12.07;8.60;;;28.20;41.80;;;;;;5070970;28;20418;-76
2023/06/19 05:25:19;;;;;;;8.50;7.60;;;28.10;41.60;;;;;;5061909;28;20436;-79
2023/06/19 05:27:47;;;;;;;8.50;7.70;;;28.10;41.80;;;;;;5069183;28;20431;-77
2023/06/19 05:30:15;;;;;;;8.60;7.80;;;28.20;41.60;;;;;;5068606;28;20491;-77
2023/06/19 05:32:43;;;;;;;8.30;6.90;;;28.00;41.90;;;;;;5075338;28;20434;-77
2023/06/19 05:35:11;;;;;;;8.17;7.47;;;27.80;42.30;;;;;;5070693;28;20477;-78
2023/06/19 05:37:43;;;;;;;8.77;8.00;;;27.50;43.00;;;;;;5073577;28;20401;-78
2023/06/19 05:40:12;;;;;;;9.43;8.57;;;27.50;43.30;;;;;;5071345;28;20988;-78
2023/06/19 05:42:41;;;;;;;8.67;7.53;;;27.30;43.50;;;;;;5073852;28;20537;-77
2023/06/19 05:45:10;;;;;;;11.03;8.30;;;27.40;43.90;;;;;;5070869;28;20535;-78
2023/06/19 05:47:38;;;;;;;9.30;8.40;;;27.90;43.70;;;;;;5072379;28;20404;-78
2023/06/19 05:50:07;;;;;;;8.83;7.93;;;28.00;42.60;;;;;;5073721;28;20412;-78
2023/06/19 05:52:35;;;;;;;11.73;7.83;;;28.30;42.70;;;;;;5069420;28;20477;-78
2023/06/19 05:55:03;;;;;;;8.67;7.77;;;28.50;42.00;;;;;;5072833;28;20436;-78
2023/06/19 05:57:31;;;;;;;8.33;7.53;;;28.20;42.00;;;;;;5067221;28;20430;-78
2023/06/19 06:00:01;;;;;;;8.13;7.33;;;28.00;42.60;;;;;;5073390;28;20460;-78
2023/06/19 06:02:29;;;;;;;8.63;7.80;;;27.60;43.40;;;;;;5065640;28;20473;-78
2023/06/19 06:04:57;;;;;;;10.23;7.93;;;27.40;43.50;;;;;;5076392;28;20458;-80
2023/06/19 06:07:27;;;;;;;11.00;8.83;;;27.20;43.80;;;;;;5074295;28;20413;-77
2023/06/19 06:09:55;;;;;;;8.57;7.83;;;27.50;44.30;;;;;;5073490;28;20991;-78
2023/06/19 06:12:23;;;;;;;9.00;8.10;;;27.40;43.90;;;;;;5065435;28;20564;-79
2023/06/19 06:14:51;;;;;;;9.10;8.00;;;27.30;44.60;;;;;;5080107;28;20526;-78
2023/06/19 06:17:21;;;;;;;8.73;7.80;;;27.50;44.50;;;;;;5065594;28;20444;-78
2023/06/19 06:19:49;;;;;;;9.00;8.20;;;27.60;44.40;;;;;;5066956;28;20433;-76
2023/06/19 06:22:18;;;;;;;12.20;8.87;;;28.10;43.90;;;;;;5075603;28;20428;-77
2023/06/19 06:24:47;;;;;;;14.40;9.57;;;28.20;43.40;;;;;;5073361;28;20560;-77
2023/06/19 06:27:14;;;;;;;9.13;8.07;;;27.90;43.60;;;;;;5073448;28;20461;-77
2023/06/19 06:29:42;;;;;;;8.13;7.43;;;27.70;44.30;;;;;;5073367;28;20458;-77
2023/06/19 06:32:10;;;;;;;14.40;8.47;;;27.90;44.40;;;;;;5075066;28;20476;-76
2023/06/19 06:34:39;;;;;;;10.90;8.10;;;27.60;44.50;;;;;;5079409;28;20526;-76
2023/06/19 06:37:07;;;;;;;9.60;8.70;;;27.50;45.00;;;;;;5066006;28;20506;-77
2023/06/19 06:39:35;;;;;;;9.37;8.13;;;27.50;46.00;;;;;;5058294;28;20877;-78
2023/06/19 06:42:03;;;;;;;9.60;8.67;;;27.60;45.90;;;;;;5082542;28;20430;-78
2023/06/19 06:44:32;;;;;;;9.17;8.07;;;27.60;45.20;;;;;;5074139;28;20985;-78
2023/06/19 06:47:00;;;;;;;9.50;8.60;;;27.80;45.80;;;;;;5071619;28;20466;-77
2023/06/19 06:49:28;;;;;;;8.60;7.80;;;27.70;45.20;;;;;;5074662;28;20541;-78
2023/06/19 06:51:58;;;;;;;12.77;8.10;;;27.60;45.60;;;;;;5082326;28;20436;-78
2023/06/19 06:54:26;;;;;;;10.70;8.40;;;28.00;45.60;;;;;;5062811;28;20484;-78
2023/06/19 06:56:58;;;;;;;12.20;8.57;;;28.10;45.20;;;;;;5074572;28;20475;-77
2023/06/19 06:59:26;;;;;;;9.27;8.20;;;27.90;46.10;;;;;;5064480;28;20475;-78
2023/06/19 07:01:56;;;;;;;9.07;7.87;;;28.10;45.70;;;;;;5077416;28;20957;-78
2023/06/19 07:04:24;;;;;;;10.20;9.03;;;28.20;45.00;;;;;;5072338;28;20515;-78
2023/06/19 07:06:52;;;;;;;9.53;8.27;;;28.10;45.50;;;;;;5065061;28;20439;-78
2023/06/19 07:09:22;;;;;;;14.47;8.97;;;28.00;46.00;;;;;;5057277;28;20516;-78
2023/06/19 07:11:50;;;;;;;8.67;7.77;;;27.80;46.50;;;;;;5062829;28;20446;-78
2023/06/19 07:14:20;;;;;;;15.33;7.90;;;28.10;46.70;;;;;;5072087;28;20468;-76
2023/06/19 07:16:49;;;;;;;10.40;8.80;;;28.20;47.00;;;;;;5072631;28;20432;-78
2023/06/19 07:19:17;;;;;;;8.40;7.60;;;28.60;45.90;;;;;;5076267;28;20440;-78
2023/06/19 07:21:45;;;;;;;17.60;8.20;;;28.50;45.60;;;;;;5079269;28;20575;-78
2023/06/19 07:24:13;;;;;;;8.23;7.40;;;28.50;46.60;;;;;;5072910;28;20458;-78
2023/06/19 07:26:42;;;;;;;8.70;7.13;;;28.50;46.10;;;;;;5064691;28;20425;-79
2023/06/19 07:29:10;;;;;;;7.97;7.27;;;28.60;46.20;;;;;;5063191;28;20433;-78
2023/06/19 07:31:38;;;;;;;8.40;7.60;;;28.40;46.20;;;;;;5060318;28;20458;-78
2023/06/19 07:34:06;;;;;;;8.53;7.67;;;28.20;47.10;;;;;;5053234;28;20509;-77
2023/06/19 07:36:34;;;;;;;9.30;7.43;;;28.40;47.10;;;;;;5053153;28;20513;-78
2023/06/19 07:39:03;;;;;;;10.30;7.70;;;28.90;46.30;;;;;;5054886;28;20446;-78
2023/06/19 07:41:31;;;;;;;10.23;7.70;;;29.00;45.70;;;;;;5060474;28;20450;-79
2023/06/19 07:44:00;;;;;;;8.73;7.40;;;28.80;46.70;;;;;;5054463;28;20535;-79
2023/06/19 07:46:28;;;;;;;8.20;7.40;;;29.10;46.00;;;;;;5056920;28;20514;-79
2023/06/19 07:48:57;;;;;;;8.73;7.17;;;28.70;46.60;;;;;;5054315;28;20530;-78
2023/06/19 07:51:25;;;;;;;13.43;7.20;;;28.80;46.50;;;;;;5073842;28;20471;-78
2023/06/19 07:53:53;;;;;;;7.93;7.10;;;29.30;46.40;;;;;;5062603;28;20483;-78
2023/06/19 07:56:21;;;;;;;8.93;8.13;;;29.40;45.50;;;;;;5054402;28;20449;-77
2023/06/19 07:58:49;;;;;;;7.60;6.47;;;29.60;45.40;;;;;;5062153;28;20551;-78
2023/06/19 08:01:18;;;;;;;7.70;6.50;;;29.30;46.00;;;;;;5054051;28;20472;-78
2023/06/19 08:03:46;;;;;;;6.83;6.10;;;28.80;46.50;;;;;;5053099;28;20517;-77
2023/06/19 08:06:14;;;;;;;5.93;5.50;;;29.00;47.00;;;;;;5052343;28;20411;-78
2023/06/19 08:08:42;;;;;;;5.90;5.40;;;29.20;46.60;;;;;;5055668;28;20545;-77
2023/06/19 08:11:11;;;;;;;6.40;5.77;;;29.50;46.60;;;;;;5052067;28;20444;-77
2023/06/19 08:13:39;;;;;;;5.97;5.57;;;29.70;46.20;;;;;;5073215;28;20498;-77
2023/06/19 08:16:07;;;;;;;5.00;4.60;;;30.00;46.30;;;;;;5062143;28;20440;-76
2023/06/19 08:18:36;;;;;;;5.63;5.00;;;30.20;46.20;;;;;;5064026;28;20452;-77
2023/06/19 08:21:04;;;;;;;4.87;4.47;;;30.20;45.60;;;;;;5070582;28;20518;-78
2023/06/19 08:23:32;;;;;;;6.23;5.17;;;30.20;45.60;;;;;;5068032;28;20427;-75
2023/06/19 08:26:00;;;;;;;5.87;5.47;;;30.50;45.80;;;;;;5058523;28;20504;-77
2023/06/19 08:28:28;;;;;;;5.50;5.07;;;30.60;45.30;;;;;;5050533;28;20485;-75
2023/06/19 08:30:56;;;;;;;6.33;4.83;;;30.30;44.90;;;;;;5050156;28;20535;-76
2023/06/19 08:33:25;;;;;;;5.00;4.70;;;30.30;45.60;;;;;;5070610;28;20496;-78
2023/06/19 08:35:54;;;;;;;6.03;4.13;;;30.30;45.60;;;;;;5055498;28;20446;-77
2023/06/19 08:38:22;;;;;;;6.20;4.73;;;30.50;46.40;;;;;;5063135;28;20569;-78
2023/06/19 08:40:51;;;;;;;5.80;4.90;;;30.50;45.40;;;;;;5069884;28;20452;-78
2023/06/19 08:43:19;;;;;;;10.83;5.17;;;30.40;45.60;;;;;;5072282;28;20462;-77
2023/06/19 08:45:55;;;;;;;8.47;5.03;;;30.50;45.80;;;;;;5072737;28;20496;-77
2023/06/19 08:48:23;;;;;;;5.70;5.20;;;30.20;46.00;;;;;;5061262;28;20412;-78
2023/06/19 08:50:51;;;;;;;5.07;4.73;;;30.10;46.20;;;;;;5066788;28;20486;-77
2023/06/19 08:53:20;;;;;;;5.10;4.70;;;29.90;47.10;;;;;;5052752;28;20489;-76
2023/06/19 08:55:48;;;;;;;6.30;5.00;;;30.20;46.90;;;;;;5065670;28;20435;-77
2023/06/19 08:58:22;;;;;;;5.23;4.93;;;30.10;47.20;;;;;;5072691;28;20556;-78
2023/06/19 09:00:50;;;;;;;5.43;4.30;;;30.30;46.70;;;;;;5068352;28;20456;-77
2023/06/19 09:03:20;;;;;;;5.60;4.40;;;30.60;46.60;;;;;;5064353;28;20542;-78
2023/06/19 09:05:50;;;;;;;6.10;4.40;;;30.80;46.20;;;;;;5059314;28;20423;-78
2023/06/19 09:08:21;;;;;;;4.70;4.23;;;30.90;45.90;;;;;;5056663;28;20442;-78
2023/06/19 09:10:57;;;;;;;4.80;4.40;;;31.00;45.90;;;;;;5070986;28;20461;-77
2023/06/19 09:13:25;;;;;;;6.20;4.67;;;31.00;45.80;;;;;;5057176;28;20481;-77
2023/06/19 09:15:58;;;;;;;4.60;4.20;;;31.20;46.30;;;;;;5062276;28;20515;-77
2023/06/19 09:18:27;;;;;;;4.53;4.13;;;31.30;45.80;;;;;;5068163;28;20455;-76
2023/06/19 09:20:55;;;;;;;4.60;4.10;;;31.50;45.50;;;;;;5073110;28;20542;-78
2023/06/19 09:23:24;;;;;;;3.63;3.40;;;31.50;45.20;;;;;;5069612;28;20514;-77
2023/06/19 09:25:54;;;;;;;4.03;3.70;;;31.60;45.40;;;;;;5059849;28;20481;-77
2023/06/19 09:28:23;;;;;;;3.80;3.50;;;31.50;45.50;;;;;;5059465;28;20445;-77
2023/06/19 09:30:56;;;;;;;4.10;3.30;;;31.60;45.30;;;;;;5061579;28;20466;-77
2023/06/19 09:33:26;;;;;;;3.80;3.50;;;31.70;45.40;;;;;;5072710;28;20496;-78
2023/06/19 09:35:54;;;;;;;4.33;3.30;;;31.50;45.20;;;;;;5076635;28;20479;-77
2023/06/19 09:38:25;;;;;;;4.03;3.40;;;31.30;45.50;;;;;;5071035;28;20469;-77
2023/06/19 09:40:54;;;;;;;3.30;2.97;;;31.40;45.90;;;;;;5074763;28;20440;-78
2023/06/19 09:43:24;;;;;;;4.53;3.00;;;31.50;45.50;;;;;;5075528;28;20461;-77
2023/06/19 09:45:54;;;;;;;3.30;3.00;;;31.40;45.50;;;;;;5081751;28;20468;-77
2023/06/19 09:48:28;;;;;;;4.13;2.73;;;31.20;45.60;;;;;;5069209;28;20468;-77
2023/06/19 09:50:59;;;;;;;2.97;2.87;;;31.00;46.40;;;;;;5065181;28;20441;-78
2023/06/19 09:53:29;;;;;;;10.77;3.00;;;31.00;46.30;;;;;;5060528;28;20489;-77
2023/06/19 09:55:57;;;;;;;3.40;3.20;;;31.10;46.40;;;;;;5060908;28;20502;-77
2023/06/19 09:58:25;;;;;;;3.33;3.13;;;31.20;46.10;;;;;;5070411;28;20553;-77
2023/06/19 10:00:54;;;;;;;4.03;3.47;;;31.10;46.10;;;;;;5065549;28;20438;-77
2023/06/19 10:03:31;;;;;;;3.80;3.53;;;31.00;46.70;;;;;;5065131;28;20497;-77
2023/06/19 10:06:00;;;;;;;3.60;3.30;;;31.00;46.10;;;;;;5060651;28;20454;-77
2023/06/19 10:08:31;;;;;;;7.77;3.90;;;30.90;46.70;;;;;;5056799;28;20443;-76
2023/06/19 10:10:59;;;;;;;3.50;3.20;;;30.50;47.00;;;;;;5065442;28;20516;-75
2023/06/19 10:13:34;;;;;;;3.27;3.07;;;30.20;48.00;;;;;;5069106;28;20469;-77
2023/06/19 10:16:02;;;;;;;3.60;3.40;;;30.30;47.80;;;;;;5067449;28;20499;-77
2023/06/19 10:18:30;;;;;;;3.67;3.47;;;30.20;47.90;;;;;;5068829;28;20486;-77
2023/06/19 10:20:58;;;;;;;4.43;3.73;;;29.80;48.60;;;;;;5071077;28;20572;-76
2023/06/19 10:23:28;;;;;;;4.53;3.37;;;29.90;48.70;;;;;;5060831;28;20473;-76
2023/06/19 10:25:58;;;;;;;6.93;3.20;;;29.60;49.10;;;;;;5057801;28;20442;-77
2023/06/19 10:28:31;;;;;;;3.80;3.50;;;29.70;49.00;;;;;;5056950;28;20410;-77
2023/06/19 10:31:00;;;;;;;6.20;2.90;;;29.80;48.60;;;;;;5066787;28;20448;-76
2023/06/19 10:33:30;;;;;;;5.07;4.00;;;29.80;48.60;;;;;;5055753;28;20462;-76
2023/06/19 10:35:59;;;;;;;3.70;3.57;;;30.10;48.50;;;;;;5060789;28;21038;-76
2023/06/19 10:38:27;;;;;;;4.03;3.20;;;30.00;48.40;;;;;;5053697;28;20466;-76
2023/06/19 10:40:56;;;;;;;3.80;3.60;;;30.00;48.40;;;;;;5056702;28;20465;-77
2023/06/19 10:43:30;;;;;;;3.67;3.47;;;30.00;48.70;;;;;;5063787;28;20466;-76
2023/06/19 10:45:58;;;;;;;3.67;3.47;;;29.70;48.70;;;;;;5059396;28;20437;-77
2023/06/19 10:48:27;;;;;;;3.17;2.90;;;29.80;49.30;;;;;;5060839;28;20434;-76
2023/06/19 10:50:57;;;;;;;3.10;3.00;;;29.80;48.90;;;;;;5064191;28;20438;-76
2023/06/19 10:53:26;;;;;;;3.83;3.63;;;29.90;49.10;;;;;;5065128;28;20457;-76
2023/06/19 10:55:57;;;;;;;3.77;2.83;;;30.00;48.40;;;;;;5065893;28;20441;-76
2023/06/19 10:58:27;;;;;;;2.90;2.80;;;30.20;48.40;;;;;;5055325;28;20466;-77
2023/06/19 11:00:55;;;;;;;5.17;3.70;;;30.20;48.00;;;;;;5065529;28;20478;-76
2023/06/19 11:03:23;;;;;;;10.00;3.67;;;30.00;48.40;;;;;;5056686;28;20499;-76
2023/06/19 11:05:51;;;;;;;3.93;3.30;;;29.80;49.00;;;;;;5055921;28;20417;-76
2023/06/19 11:08:20;;;;;;;7.10;3.60;;;29.70;49.40;;;;;;5054035;28;20461;-76
2023/06/19 11:10:48;;;;;;;3.53;3.23;;;29.60;49.20;;;;;;5053334;28;20477;-76
2023/06/19 11:13:17;;;;;;;4.00;3.60;;;29.90;49.60;;;;;;5056641;28;20539;-77
2023/06/19 11:15:49;;;;;;;3.43;3.33;;;30.00;48.50;;;;;;5064304;28;20835;-77
2023/06/19 11:18:17;;;;;;;3.07;2.97;;;30.00;48.90;;;;;;5066062;28;20466;-77
2023/06/19 11:20:46;;;;;;;4.47;3.60;;;30.10;48.60;;;;;;5055630;28;20530;-76
2023/06/19 11:23:14;;;;;;;4.50;3.63;;;29.90;49.10;;;;;;5067092;28;20466;-77
2023/06/19 11:25:42;;;;;;;4.47;4.07;;;29.70;48.60;;;;;;5056644;28;20868;-76
2023/06/19 11:28:14;;;;;;;4.87;4.47;;;29.50;49.50;;;;;;5052532;28;20504;-76
2023/06/19 11:30:43;;;;;;;3.77;3.50;;;29.60;49.50;;;;;;5060842;28;20434;-77
2023/06/19 11:33:22;;;;;;;4.87;4.20;;;29.50;49.20;;;;;;5055659;28;20459;-77
2023/06/19 11:35:50;;;;;;;4.60;4.00;;;29.60;49.60;;;;;;5064803;28;20445;-77
2023/06/19 11:38:19;;;;;;;4.47;4.10;;;29.90;49.30;;;;;;5057449;28;20469;-77
2023/06/19 11:40:47;;;;;;;4.20;3.80;;;29.80;48.90;;;;;;5053278;28;20966;-77
2023/06/19 11:43:24;;;;;;;4.03;3.83;;;29.50;49.30;;;;;;5053503;28;20516;-77
2023/06/19 11:45:53;;;;;;;4.47;4.10;;;29.50;50.00;;;;;;5062382;28;20456;-77
2023/06/19 11:48:26;;;;;;;4.23;3.77;;;29.60;50.10;;;;;;5069759;28;20898;-78
2023/06/19 11:50:54;;;;;;;5.13;4.50;;;29.90;50.00;;;;;;5056623;28;20520;-78
2023/06/19 11:53:23;;;;;;;7.80;4.80;;;29.90;49.20;;;;;;5056361;28;20512;-78
2023/06/19 11:55:51;;;;;;;4.90;4.50;;;29.70;49.60;;;;;;5063664;28;20499;-78
2023/06/19 11:58:20;;;;;;;4.50;4.10;;;29.40;50.20;;;;;;5054858;28;20524;-79
2023/06/19 12:00:49;;;;;;;5.10;4.70;;;29.60;50.00;;;;;;5063468;28;20420;-79
2023/06/19 12:03:17;;;;;;;9.80;4.73;;;29.60;50.50;;;;;;5079172;28;20489;-78
2023/06/19 12:05:46;;;;;;;7.43;6.83;;;29.60;50.60;;;;;;5064223;28;20413;-78
2023/06/19 12:08:14;;;;;;;5.43;4.87;;;29.90;49.70;;;;;;5062036;28;20459;-78
2023/06/19 12:10:42;;;;;;;6.20;5.03;;;30.20;49.40;;;;;;5067126;28;20511;-78
2023/06/19 12:13:10;;;;;;;8.87;6.03;;;30.40;49.20;;;;;;5062357;28;20474;-76
2023/06/19 12:15:38;;;;;;;5.00;4.60;;;30.60;49.00;;;;;;5070968;28;20484;-77
2023/06/19 12:18:07;;;;;;;5.90;5.40;;;30.60;48.70;;;;;;5062486;28;20493;-77
2023/06/19 12:20:35;;;;;;;4.77;4.37;;;31.00;48.70;;;;;;5070539;28;20548;-77
2023/06/19 12:23:04;;;;;;;5.20;4.80;;;31.20;47.80;;;;;;5071074;28;20495;-77
2023/06/19 12:25:32;;;;;;;5.17;4.60;;;31.40;47.70;;;;;;5062459;28;20484;-77
2023/06/19 12:28:00;;;;;;;4.33;4.07;;;31.80;47.70;;;;;;5058039;28;20434;-77
2023/06/19 12:30:28;;;;;;;4.53;4.23;;;31.80;46.60;;;;;;5058966;28;20435;-78
2023/06/19 12:32:56;;;;;;;6.07;4.60;;;32.00;46.20;;;;;;5052635;28;20572;-77
2023/06/19 12:35:25;;;;;;;4.20;3.90;;;32.10;46.00;;;;;;5062338;28;20469;-77
2023/06/19 12:37:54;;;;;;;4.23;3.83;;;32.30;45.80;;;;;;5071116;28;20437;-77
2023/06/19 12:40:24;;;;;;;4.83;4.50;;;32.40;45.60;;;;;;5060399;28;20485;-77
2023/06/19 12:42:52;;;;;;;4.60;4.30;;;32.20;45.60;;;;;;5073393;28;20514;-77
2023/06/19 12:45:20;;;;;;;9.50;8.30;;;31.90;46.10;;;;;;5053516;28;20447;-77
2023/06/19 12:47:48;;;;;;;6.37;5.77;;;31.70;46.20;;;;;;5063729;28;20466;-77
2023/06/19 12:50:17;;;;;;;5.97;5.47;;;31.90;46.60;;;;;;5058249;28;20439;-78